createdAt,value
2019-03-19T00:00:19.617Z,99.99
2019-03-19T00:01:29.056Z,99.99
2019-03-19T00:02:38.998Z,99.99
2019-03-19T00:03:48.712Z,99.99
2019-03-19T00:04:58.644Z,99.99
2019-03-19T00:06:08.616Z,99.99
2019-03-19T00:07:18.573Z,99.99
2019-03-19T00:08:28.010Z,99.99
2019-03-19T00:09:37.960Z,99.99
2019-03-19T00:10:47.894Z,99.99
2019-03-19T00:12:00.250Z,99.99
2019-03-19T00:13:10.216Z,99.99
2019-03-19T00:14:20.159Z,99.99
2019-03-19T00:15:30.084Z,99.99
2019-03-19T00:16:40.092Z,99.99
2019-03-19T00:17:50.037Z,99.99
2019-03-19T00:18:59.982Z,99.99
2019-03-19T00:20:09.923Z,99.99
2019-03-19T00:21:19.623Z,99.99
2019-03-19T00:22:29.566Z,99.99
2019-03-19T00:23:39.508Z,99.99
2019-03-19T00:24:49.205Z,99.99
2019-03-19T00:25:58.642Z,99.99
2019-03-19T00:27:08.626Z,99.99
2019-03-19T00:28:18.589Z,99.99
2019-03-19T00:29:28.274Z,99.99
2019-03-19T00:30:38.222Z,99.99
2019-03-19T00:31:48.168Z,99.99
2019-03-19T00:32:57.654Z,99.99
2019-03-19T00:34:07.592Z,99.99
2019-03-19T00:35:17.554Z,99.99
2019-03-19T00:36:27.256Z,99.99
2019-03-19T00:37:37.210Z,99.99
2019-03-19T00:38:46.913Z,99.99
2019-03-19T00:39:56.949Z,99.99
2019-03-19T00:41:06.635Z,99.99
2019-03-19T00:42:16.330Z,99.99
2019-03-19T00:43:26.267Z,99.99
2019-03-19T00:44:36.219Z,99.99
2019-03-19T00:45:46.160Z,99.99
2019-03-19T00:46:55.856Z,99.99
2019-03-19T00:48:05.811Z,99.99
2019-03-19T00:49:15.500Z,99.99
2019-03-19T00:50:25.435Z,99.99
2019-03-19T00:51:35.374Z,99.99
2019-03-19T00:52:45.061Z,99.99
2019-03-19T00:53:55.035Z,99.99
2019-03-19T00:55:04.735Z,99.99
2019-03-19T00:56:14.680Z,99.99
2019-03-19T00:57:24.368Z,99.99
2019-03-19T00:58:34.303Z,99.99
2019-03-19T00:59:43.748Z,99.99
2019-03-19T01:00:53.701Z,99.99
2019-03-19T01:02:03.633Z,99.99
2019-03-19T01:03:13.312Z,99.99
2019-03-19T01:04:23.019Z,99.99
2019-03-19T01:05:32.704Z,99.99
2019-03-19T01:06:42.407Z,99.99
2019-03-19T01:07:52.335Z,99.99
2019-03-19T01:09:02.044Z,99.99
2019-03-19T01:10:12.057Z,99.99
2019-03-19T01:11:24.812Z,99.99
2019-03-19T01:12:34.508Z,99.99
2019-03-19T01:13:44.189Z,99.99
2019-03-19T01:14:53.643Z,99.99
2019-03-19T01:16:03.564Z,99.99
2019-03-19T01:17:13.257Z,99.99
2019-03-19T01:18:22.927Z,99.99
2019-03-19T01:19:32.888Z,99.99
2019-03-19T01:20:42.832Z,99.99
2019-03-19T01:21:52.515Z,99.99
2019-03-19T01:23:01.695Z,99.99
2019-03-19T01:24:11.134Z,99.99
2019-03-19T01:25:21.294Z,99.99
2019-03-19T01:26:31.230Z,99.99
2019-03-19T01:27:41.207Z,99.99
2019-03-19T01:28:51.165Z,99.99
2019-03-19T01:30:00.855Z,99.99
2019-03-19T01:31:10.797Z,99.99
2019-03-19T01:32:20.488Z,99.99
2019-03-19T01:33:30.188Z,99.99
2019-03-19T01:34:40.135Z,99.99
2019-03-19T01:35:49.572Z,99.99
2019-03-19T01:36:59.509Z,99.99
2019-03-19T01:38:09.197Z,99.99
2019-03-19T01:39:19.159Z,99.99
2019-03-19T01:40:29.088Z,99.99
2019-03-19T01:41:38.805Z,99.99
2019-03-19T01:42:48.753Z,99.99
2019-03-19T01:43:58.697Z,99.99
2019-03-19T01:45:08.632Z,99.99
2019-03-19T01:46:18.566Z,99.99
2019-03-19T01:47:28.573Z,99.99
2019-03-19T01:48:38.263Z,99.99
2019-03-19T01:49:47.949Z,99.99
2019-03-19T01:50:57.887Z,99.99
2019-03-19T01:52:07.401Z,99.99
2019-03-19T01:53:17.096Z,99.99
2019-03-19T01:54:27.083Z,99.99
2019-03-19T01:55:37.018Z,99.99
2019-03-19T01:56:46.975Z,99.99
2019-03-19T01:57:56.916Z,99.99
2019-03-19T01:59:06.853Z,99.99
2019-03-19T02:00:16.048Z,99.99
2019-03-19T02:01:26.051Z,99.99
2019-03-19T02:02:35.486Z,99.99
2019-03-19T02:03:45.181Z,99.99
2019-03-19T02:04:54.627Z,99.99
2019-03-19T02:06:04.566Z,99.99
2019-03-19T02:07:14.512Z,99.99
2019-03-19T02:08:24.444Z,99.99
2019-03-19T02:09:34.388Z,99.99
2019-03-19T02:10:44.073Z,99.99
2019-03-19T02:11:54.011Z,99.99
2019-03-19T02:13:03.455Z,99.99
2019-03-19T02:14:13.137Z,99.99
2019-03-19T02:15:22.841Z,99.99
2019-03-19T02:16:32.797Z,99.99
2019-03-19T02:17:42.228Z,99.99
2019-03-19T02:18:52.173Z,99.99
2019-03-19T02:20:01.874Z,99.99
2019-03-19T02:21:11.821Z,99.99
2019-03-19T02:22:21.515Z,99.99
2019-03-19T02:23:31.208Z,99.99
2019-03-19T02:24:41.165Z,99.99
2019-03-19T02:25:50.856Z,99.99
2019-03-19T02:27:00.825Z,99.99
2019-03-19T02:28:10.507Z,99.99
2019-03-19T02:29:20.469Z,99.99
2019-03-19T02:30:30.183Z,99.99
2019-03-19T02:31:40.187Z,99.99
2019-03-19T02:32:49.411Z,99.99
2019-03-19T02:33:59.375Z,99.99
2019-03-19T02:35:09.111Z,99.99
2019-03-19T02:36:19.128Z,99.99
2019-03-19T02:37:29.085Z,99.99
2019-03-19T02:38:39.048Z,99.99
2019-03-19T02:39:48.496Z,99.99
2019-03-19T02:40:58.459Z,99.99
2019-03-19T02:42:07.667Z,99.99
2019-03-19T02:43:17.637Z,99.99
2019-03-19T02:44:30.294Z,99.99
2019-03-19T02:45:40.029Z,99.99
2019-03-19T02:46:50.019Z,99.99
2019-03-19T02:47:59.784Z,99.99
2019-03-19T02:49:09.739Z,99.99
2019-03-19T02:50:19.720Z,99.99
2019-03-19T02:51:29.188Z,99.99
2019-03-19T02:52:39.171Z,99.99
2019-03-19T02:53:49.332Z,99.99
2019-03-19T02:54:59.287Z,99.99
2019-03-19T02:56:09.273Z,99.99
2019-03-19T02:57:34.561Z,99.99
2019-03-19T02:58:44.263Z,99.99
2019-03-19T02:59:54.234Z,99.99
2019-03-19T03:01:04.233Z,99.99
2019-03-19T03:02:14.232Z,99.99
2019-03-19T03:03:23.707Z,99.99
2019-03-19T03:04:33.398Z,99.99
2019-03-19T03:05:43.393Z,99.99
2019-03-19T03:06:53.346Z,99.99
2019-03-19T03:08:03.053Z,99.99
2019-03-19T03:09:13.017Z,99.99
2019-03-19T03:10:22.971Z,99.99
2019-03-19T03:11:32.936Z,99.99
2019-03-19T03:12:42.646Z,99.99
2019-03-19T03:13:52.616Z,99.99
2019-03-19T03:15:02.943Z,99.99
2019-03-19T03:16:12.642Z,99.99
2019-03-19T03:17:22.094Z,99.99
2019-03-19T03:18:32.048Z,99.99
2019-03-19T03:19:42.007Z,99.99
2019-03-19T03:20:51.822Z,99.99
2019-03-19T03:22:01.802Z,99.99
2019-03-19T03:23:11.772Z,99.99
2019-03-19T03:24:21.728Z,99.99
2019-03-19T03:25:31.677Z,99.99
2019-03-19T03:26:50.369Z,99.99
2019-03-19T03:27:59.826Z,99.99
2019-03-19T03:29:09.288Z,99.99
2019-03-19T03:30:19.342Z,99.99
2019-03-19T03:31:29.519Z,99.99
2019-03-19T03:32:39.595Z,99.99
2019-03-19T03:33:49.661Z,99.99
2019-03-19T03:34:59.636Z,99.99
2019-03-19T03:36:09.695Z,99.99
2019-03-19T03:37:19.400Z,99.99
2019-03-19T03:38:29.350Z,99.99
2019-03-19T03:39:38.829Z,99.99
2019-03-19T03:40:48.790Z,99.99
2019-03-19T03:41:58.765Z,99.99
2019-03-19T03:43:08.486Z,99.99
2019-03-19T03:44:18.440Z,99.99
2019-03-19T03:45:28.158Z,99.99
2019-03-19T03:46:37.359Z,99.99
2019-03-19T03:47:47.325Z,99.99
2019-03-19T03:48:57.313Z,99.99
2019-03-19T03:50:07.021Z,99.99
2019-03-19T03:51:16.723Z,99.99
2019-03-19T03:52:26.675Z,99.99
2019-03-19T03:53:36.125Z,99.99
2019-03-19T03:54:46.089Z,99.99
2019-03-19T03:55:56.044Z,99.99
2019-03-19T03:57:05.792Z,99.99
2019-03-19T03:58:15.760Z,99.99
2019-03-19T03:59:25.729Z,99.99
2019-03-19T04:00:35.681Z,99.99
2019-03-19T04:01:45.394Z,99.99
2019-03-19T04:02:55.157Z,99.99
2019-03-19T04:04:04.863Z,99.99
2019-03-19T04:05:14.563Z,99.99
2019-03-19T04:06:24.290Z,99.99
2019-03-19T04:07:34.006Z,99.99
2019-03-19T04:08:44.036Z,99.99
2019-03-19T04:09:54.004Z,99.99
2019-03-19T04:11:04.048Z,99.99
2019-03-19T04:12:13.762Z,99.99
2019-03-19T04:13:23.719Z,99.99
2019-03-19T04:14:33.463Z,99.99
2019-03-19T04:15:43.419Z,99.99
2019-03-19T04:16:52.863Z,99.99
2019-03-19T04:18:02.808Z,99.99
2019-03-19T04:19:12.539Z,99.99
2019-03-19T04:20:22.235Z,99.99
2019-03-19T04:21:32.183Z,99.99
2019-03-19T04:22:42.149Z,99.99
2019-03-19T04:23:52.172Z,99.99
2019-03-19T04:25:02.142Z,99.99
2019-03-19T04:26:11.853Z,99.99
2019-03-19T04:27:21.551Z,99.99
2019-03-19T04:28:31.251Z,99.99
2019-03-19T04:29:40.968Z,99.99
2019-03-19T04:30:50.947Z,99.99
2019-03-19T04:32:00.686Z,99.99
2019-03-19T04:33:10.637Z,99.99
2019-03-19T04:34:20.620Z,99.99
2019-03-19T04:35:30.325Z,99.99
2019-03-19T04:36:40.059Z,99.99
2019-03-19T04:37:50.007Z,99.99
2019-03-19T04:38:59.708Z,99.99
2019-03-19T04:40:09.666Z,99.99
2019-03-19T04:41:19.392Z,99.99
2019-03-19T04:42:29.325Z,99.99
2019-03-19T04:43:39.273Z,99.99
2019-03-19T04:44:49.288Z,99.99
2019-03-19T04:45:59.232Z,99.99
2019-03-19T04:47:08.444Z,99.99
2019-03-19T04:48:18.145Z,99.99
2019-03-19T04:49:27.830Z,99.99
2019-03-19T04:50:37.765Z,99.99
2019-03-19T04:51:47.722Z,99.99
2019-03-19T04:52:57.664Z,99.99
2019-03-19T04:54:07.695Z,99.99
2019-03-19T04:55:17.656Z,99.99
2019-03-19T04:56:27.358Z,99.99
2019-03-19T04:57:37.300Z,99.99
2019-03-19T04:58:47.248Z,99.99
2019-03-19T04:59:58.926Z,99.99
2019-03-19T05:01:08.788Z,99.99
2019-03-19T05:02:18.489Z,99.99
2019-03-19T05:03:28.178Z,99.99
2019-03-19T05:04:38.260Z,99.99
2019-03-19T05:05:47.970Z,99.99
2019-03-19T05:06:57.927Z,99.99
2019-03-19T05:08:07.672Z,99.99
2019-03-19T05:09:17.616Z,99.99
2019-03-19T05:10:27.331Z,99.99
2019-03-19T05:11:37.278Z,99.99
2019-03-19T05:12:47.230Z,99.99
2019-03-19T05:13:56.693Z,99.99
2019-03-19T05:15:06.417Z,99.99
2019-03-19T05:16:16.351Z,99.99
2019-03-19T05:17:26.284Z,99.99
2019-03-19T05:18:36.240Z,99.99
2019-03-19T05:19:46.190Z,99.99
2019-03-19T05:20:55.897Z,99.99
2019-03-19T05:22:05.603Z,99.99
2019-03-19T05:23:15.544Z,99.99
2019-03-19T05:24:25.488Z,99.99
2019-03-19T05:25:35.170Z,99.99
2019-03-19T05:26:44.855Z,99.99
2019-03-19T05:27:54.568Z,99.99
2019-03-19T05:29:04.256Z,99.99
2019-03-19T05:30:14.202Z,99.99
2019-03-19T05:31:24.134Z,99.99
2019-03-19T05:32:33.618Z,99.99
2019-03-19T05:33:43.561Z,99.99
2019-03-19T05:34:53.268Z,99.99
2019-03-19T05:36:03.239Z,99.99
2019-03-19T05:37:13.185Z,99.99
2019-03-19T05:38:23.136Z,99.99
2019-03-19T05:39:33.097Z,99.99
2019-03-19T05:40:43.042Z,99.99
2019-03-19T05:41:52.733Z,99.99
2019-03-19T05:43:02.420Z,99.99
2019-03-19T05:44:12.362Z,99.99
2019-03-19T05:45:22.524Z,99.99
2019-03-19T05:46:32.230Z,99.99
2019-03-19T05:47:43.232Z,99.99
2019-03-19T05:48:53.202Z,99.99
2019-03-19T05:50:03.152Z,99.99
2019-03-19T05:51:13.119Z,99.99
2019-03-19T05:52:23.063Z,99.99
2019-03-19T05:53:32.996Z,99.99
2019-03-19T05:54:42.701Z,99.99
2019-03-19T05:55:52.645Z,99.99
2019-03-19T05:57:02.391Z,99.99
2019-03-19T05:58:12.342Z,99.99
2019-03-19T05:59:22.309Z,99.99
2019-03-19T06:00:31.779Z,99.99
2019-03-19T06:01:41.462Z,99.99
2019-03-19T06:02:50.916Z,99.99
2019-03-19T06:04:00.864Z,99.99
2019-03-19T06:05:10.796Z,99.99
2019-03-19T06:06:20.852Z,99.99
2019-03-19T06:07:30.322Z,99.99
2019-03-19T06:08:40.028Z,99.99
2019-03-19T06:09:49.971Z,99.99
2019-03-19T06:10:59.654Z,99.99
2019-03-19T06:12:09.591Z,99.99
2019-03-19T06:13:19.284Z,99.99
2019-03-19T06:14:28.986Z,99.99
2019-03-19T06:15:38.728Z,99.99
2019-03-19T06:16:48.404Z,99.99
2019-03-19T06:17:58.356Z,99.99
2019-03-19T06:19:08.308Z,99.99
2019-03-19T06:20:18.024Z,99.99
2019-03-19T06:21:27.758Z,99.99
2019-03-19T06:22:37.706Z,99.99
2019-03-19T06:23:47.384Z,99.99
2019-03-19T06:24:57.361Z,99.99
2019-03-19T06:26:07.289Z,99.99
2019-03-19T06:27:16.984Z,99.99
2019-03-19T06:28:26.941Z,99.99
2019-03-19T06:29:38.583Z,99.99
2019-03-19T06:30:48.280Z,99.99
2019-03-19T06:31:57.732Z,99.99
2019-03-19T06:33:07.696Z,99.99
2019-03-19T06:34:17.708Z,99.99
2019-03-19T06:35:27.151Z,99.99
2019-03-19T06:36:37.196Z,99.99
2019-03-19T06:37:47.141Z,99.99
2019-03-19T06:38:57.086Z,99.99
2019-03-19T06:40:07.050Z,99.99
2019-03-19T06:41:16.484Z,99.99
2019-03-19T06:42:26.426Z,99.99
2019-03-19T06:43:36.356Z,99.99
2019-03-19T06:44:46.292Z,99.99
2019-03-19T06:45:56.260Z,99.99
2019-03-19T06:47:05.959Z,99.99
2019-03-19T06:48:15.409Z,99.99
2019-03-19T06:49:25.411Z,99.99
2019-03-19T06:50:44.596Z,99.99
2019-03-19T06:51:54.908Z,99.99
2019-03-19T06:53:04.613Z,99.99
2019-03-19T06:54:14.552Z,99.99
2019-03-19T06:55:24.499Z,99.99
2019-03-19T06:56:34.456Z,99.99
2019-03-19T06:57:44.436Z,99.99
2019-03-19T06:58:54.156Z,99.99
2019-03-19T07:00:04.105Z,99.99
2019-03-19T07:01:13.801Z,99.99
2019-03-19T07:02:25.164Z,99.99
2019-03-19T07:03:34.875Z,99.99
2019-03-19T07:04:44.572Z,99.99
2019-03-19T07:05:54.513Z,99.99
2019-03-19T07:07:04.245Z,99.99
2019-03-19T07:08:14.193Z,99.99
2019-03-19T07:09:24.156Z,99.99
2019-03-19T07:10:33.867Z,99.99
2019-03-19T07:11:43.813Z,99.99
2019-03-19T07:12:53.776Z,99.99
2019-03-19T07:14:03.746Z,99.99
2019-03-19T07:15:13.460Z,99.99
2019-03-19T07:16:23.416Z,99.99
2019-03-19T07:17:33.358Z,99.99
2019-03-19T07:18:42.818Z,99.99
2019-03-19T07:19:52.797Z,99.99
2019-03-19T07:21:02.790Z,99.99
2019-03-19T07:22:12.498Z,99.99
2019-03-19T07:23:22.441Z,99.99
2019-03-19T07:24:32.391Z,99.99
2019-03-19T07:25:42.110Z,99.99
2019-03-19T07:26:52.055Z,99.99
2019-03-19T07:28:02.067Z,99.99
2019-03-19T07:29:12.012Z,99.99
2019-03-19T07:30:21.750Z,99.99
2019-03-19T07:31:33.546Z,99.99
2019-03-19T07:32:43.499Z,99.99
2019-03-19T07:33:53.464Z,99.99
2019-03-19T07:35:03.169Z,99.99
2019-03-19T07:36:12.873Z,99.99
2019-03-19T07:37:22.547Z,99.99
2019-03-19T07:38:35.801Z,99.99
2019-03-19T07:39:45.763Z,99.99
2019-03-19T07:40:55.710Z,99.99
2019-03-19T07:42:05.402Z,99.99
2019-03-19T07:43:15.410Z,99.99
2019-03-19T07:44:25.115Z,99.99
2019-03-19T07:45:35.067Z,99.99
2019-03-19T07:46:45.901Z,99.99
2019-03-19T07:47:56.009Z,99.99
2019-03-19T07:49:05.957Z,99.99
2019-03-19T07:50:15.653Z,99.99
2019-03-19T07:51:25.357Z,99.99
2019-03-19T07:52:35.324Z,99.99
2019-03-19T07:53:45.023Z,99.99
2019-03-19T07:54:54.501Z,99.99
2019-03-19T07:56:04.499Z,99.99
2019-03-19T07:57:14.207Z,99.99
2019-03-19T07:58:44.978Z,99.99
2019-03-19T07:59:55.422Z,99.99
2019-03-19T08:01:05.538Z,99.99
2019-03-19T08:02:15.229Z,99.99
2019-03-19T08:03:24.915Z,99.99
2019-03-19T08:04:34.859Z,99.99
2019-03-19T08:05:44.800Z,99.99
2019-03-19T08:06:54.747Z,99.99
2019-03-19T08:08:04.733Z,99.99
2019-03-19T08:09:14.693Z,99.99
2019-03-19T08:10:24.722Z,99.99
2019-03-19T08:11:34.685Z,99.99
2019-03-19T08:12:44.625Z,99.99
2019-03-19T08:13:54.637Z,99.99
2019-03-19T08:15:04.583Z,99.99
2019-03-19T08:16:14.513Z,99.99
2019-03-19T08:17:34.977Z,99.99
2019-03-19T08:18:46.005Z,99.99
2019-03-19T08:19:57.246Z,99.99
2019-03-19T08:21:07.083Z,99.99
2019-03-19T08:22:17.018Z,99.99
2019-03-19T08:23:27.248Z,99.99
2019-03-19T08:24:37.190Z,99.99
2019-03-19T08:25:46.771Z,99.99
2019-03-19T08:26:56.503Z,99.99
2019-03-19T08:28:06.198Z,99.99
2019-03-19T08:29:15.941Z,99.99
2019-03-19T08:30:27.366Z,99.77
2019-03-19T08:31:37.327Z,99.77
2019-03-19T08:32:47.286Z,99.99
2019-03-19T08:33:57.003Z,99.99
2019-03-19T08:35:06.942Z,99.99
2019-03-19T08:36:16.395Z,99.99
2019-03-19T08:37:26.359Z,99.96
2019-03-19T08:38:35.909Z,99.99
2019-03-19T08:39:45.116Z,99.44
2019-03-19T08:40:55.109Z,98.49
2019-03-19T08:42:05.093Z,99.44
2019-03-19T08:43:15.144Z,98.87
2019-03-19T08:44:30.146Z,98.59
2019-03-19T08:45:39.935Z,97.36
2019-03-19T08:46:49.940Z,98.3
2019-03-19T08:47:59.653Z,98.49
2019-03-19T08:49:09.602Z,98.87
2019-03-19T08:50:19.559Z,98.02
2019-03-19T08:51:29.329Z,95.93
2019-03-19T08:52:39.312Z,95.51
2019-03-19T08:53:49.011Z,94.74
2019-03-19T08:54:58.942Z,95.31
2019-03-19T08:56:08.897Z,95.7
2019-03-19T08:57:18.590Z,94.79
2019-03-19T08:58:28.267Z,93.94
2019-03-19T08:59:38.219Z,93.75
2019-03-19T09:00:47.942Z,93.65
2019-03-19T09:01:57.419Z,95.84
2019-03-19T09:03:07.100Z,95.84
2019-03-19T09:04:17.061Z,93.99
2019-03-19T09:05:26.744Z,92.37
2019-03-19T09:06:36.677Z,92.47
2019-03-19T09:07:46.623Z,93.32
2019-03-19T09:08:56.324Z,95.31
2019-03-19T09:10:06.014Z,91.38
2019-03-19T09:11:15.725Z,90.71
2019-03-19T09:12:25.679Z,90.52
2019-03-19T09:13:35.619Z,91.38
2019-03-19T09:14:45.322Z,89.42
2019-03-19T09:15:55.279Z,86.67
2019-03-19T09:17:05.222Z,88
2019-03-19T09:18:16.090Z,87.52
2019-03-19T09:19:25.924Z,85.53
2019-03-19T09:20:35.616Z,84.72
2019-03-19T09:21:45.571Z,85.96
2019-03-19T09:22:55.526Z,84.53
2019-03-19T09:24:05.241Z,84.44
2019-03-19T09:25:14.959Z,84.91
2019-03-19T09:26:24.927Z,85.11
2019-03-19T09:27:34.396Z,84.72
2019-03-19T09:28:44.359Z,84.82
2019-03-19T09:29:53.563Z,84.06
2019-03-19T09:31:03.511Z,85.58
2019-03-19T09:32:13.209Z,84.82
2019-03-19T09:33:22.893Z,83.59
2019-03-19T09:34:32.846Z,85.49
2019-03-19T09:35:42.819Z,85.49
2019-03-19T09:37:00.030Z,83.39
2019-03-19T09:38:09.991Z,83.49
2019-03-19T09:39:19.432Z,83.3
2019-03-19T09:40:29.417Z,83.59
2019-03-19T09:41:39.376Z,83.97
2019-03-19T09:42:49.340Z,83.78
2019-03-19T09:43:59.358Z,85.01
2019-03-19T09:45:09.070Z,83.87
2019-03-19T09:46:21.006Z,82.82
2019-03-19T09:47:30.728Z,82.26
2019-03-19T09:48:41.471Z,81.02
2019-03-19T09:49:53.033Z,80.16
2019-03-19T09:51:03.166Z,78.97
2019-03-19T09:52:13.122Z,77.55
2019-03-19T09:53:23.083Z,77.26
2019-03-19T09:54:34.674Z,77.55
2019-03-19T09:55:44.386Z,79.25
2019-03-19T09:56:54.085Z,79.86
2019-03-19T09:58:03.788Z,79.58
2019-03-19T09:59:13.762Z,77.68
2019-03-19T10:00:34.074Z,76.29
2019-03-19T10:01:44.024Z,76.86
2019-03-19T10:02:54.008Z,76.29
2019-03-19T10:04:03.456Z,75.15
2019-03-19T10:05:13.170Z,73.1
2019-03-19T10:06:22.865Z,74.43
2019-03-19T10:07:32.814Z,72.9
2019-03-19T10:08:42.525Z,71.76
2019-03-19T10:09:52.681Z,70.9
2019-03-19T10:11:02.369Z,70.05
2019-03-19T10:12:12.377Z,71.67
2019-03-19T10:13:21.839Z,71.09
2019-03-19T10:14:31.545Z,72.42
2019-03-19T10:15:41.494Z,72.96
2019-03-19T10:16:51.483Z,74.58
2019-03-19T10:18:01.465Z,74.58
2019-03-19T10:19:11.177Z,74.01
2019-03-19T10:20:21.131Z,73.25
2019-03-19T10:21:31.210Z,72.9
2019-03-19T10:22:41.150Z,73.76
2019-03-19T10:23:51.110Z,72.86
2019-03-19T10:25:01.063Z,75.53
2019-03-19T10:26:11.034Z,73.95
2019-03-19T10:27:22.172Z,73.1
2019-03-19T10:28:32.115Z,71.57
2019-03-19T10:29:41.839Z,68.43
2019-03-19T10:30:51.553Z,68.05
2019-03-19T10:32:01.512Z,67.19
2019-03-19T10:33:11.436Z,66.87
2019-03-19T10:34:23.617Z,66.59
2019-03-19T10:35:33.164Z,66.2
2019-03-19T10:36:42.895Z,66.3
2019-03-19T10:37:52.617Z,66.39
2019-03-19T10:39:02.567Z,66.27
2019-03-19T10:40:14.429Z,66.55
2019-03-19T10:41:24.382Z,67.88
2019-03-19T10:42:33.590Z,68.65
2019-03-19T10:43:43.295Z,69.69
2019-03-19T10:44:53.006Z,69.44
2019-03-19T10:46:03.153Z,65.86
2019-03-19T10:47:13.105Z,64.81
2019-03-19T10:48:23.067Z,63.48
2019-03-19T10:49:32.763Z,65.48
2019-03-19T10:50:42.459Z,65.95
2019-03-19T10:51:52.400Z,65.19
2019-03-19T10:53:02.396Z,62.81
2019-03-19T10:54:12.090Z,64.78
2019-03-19T10:55:22.061Z,65.6
2019-03-19T10:56:32.018Z,65.89
2019-03-19T10:57:44.197Z,66.55
2019-03-19T10:58:54.158Z,67.28
2019-03-19T11:00:03.866Z,67.66
2019-03-19T11:01:13.573Z,68.07
2019-03-19T11:02:23.544Z,67.88
2019-03-19T11:03:33.505Z,69.41
2019-03-19T11:04:43.217Z,68.36
2019-03-19T11:05:53.212Z,68.27
2019-03-19T11:07:03.178Z,68.55
2019-03-19T11:08:13.118Z,66.2
2019-03-19T11:09:23.071Z,66.97
2019-03-19T11:10:32.782Z,66.72
2019-03-19T11:11:42.739Z,65.77
2019-03-19T11:12:52.712Z,64.37
2019-03-19T11:14:02.413Z,63.51
2019-03-19T11:15:12.358Z,62.85
2019-03-19T11:16:22.329Z,63.7
2019-03-19T11:17:32.292Z,63.7
2019-03-19T11:18:42.004Z,62.37
2019-03-19T11:19:51.968Z,60.59
2019-03-19T11:21:01.935Z,60.46
2019-03-19T11:22:11.889Z,61.51
2019-03-19T11:23:21.606Z,62.94
2019-03-19T11:24:31.636Z,62.18
2019-03-19T11:25:41.648Z,63.6
2019-03-19T11:27:01.711Z,62.53
2019-03-19T11:28:13.654Z,62.53
2019-03-19T11:29:23.764Z,62.72
2019-03-19T11:30:33.530Z,63.76
2019-03-19T11:31:43.480Z,63.48
2019-03-19T11:32:53.186Z,65.42
2019-03-19T11:34:02.962Z,62.08
2019-03-19T11:35:12.928Z,62.08
2019-03-19T11:36:22.950Z,61.9
2019-03-19T11:37:32.673Z,61.16
2019-03-19T11:38:42.638Z,60.3
2019-03-19T11:39:52.606Z,60.24
2019-03-19T11:41:02.572Z,60.11
2019-03-19T11:42:14.942Z,60.49
2019-03-19T11:43:24.411Z,59.67
2019-03-19T11:44:34.382Z,58.62
2019-03-19T11:45:45.814Z,59.38
2019-03-19T11:46:56.121Z,59.76
2019-03-19T11:48:06.104Z,59.48
2019-03-19T11:49:16.094Z,60.49
2019-03-19T11:50:25.931Z,61.04
2019-03-19T11:51:38.557Z,63.01
2019-03-19T11:52:48.298Z,65
2019-03-19T11:53:58.046Z,66.05
2019-03-19T11:55:07.752Z,66.59
2019-03-19T11:56:17.521Z,67.35
2019-03-19T11:57:27.491Z,67.69
2019-03-19T11:58:37.202Z,68.46
2019-03-19T11:59:46.910Z,68.36
2019-03-19T12:00:56.616Z,68.71
2019-03-19T12:02:06.598Z,69.09
2019-03-19T12:03:19.008Z,68.99
2019-03-19T12:04:28.459Z,69.85
2019-03-19T12:05:38.182Z,69.37
2019-03-19T12:06:47.880Z,70.23
2019-03-19T12:07:57.595Z,69.66
2019-03-19T12:09:07.576Z,69.37
2019-03-19T12:10:17.546Z,70.42
2019-03-19T12:11:27.509Z,70.13
2019-03-19T12:12:37.217Z,70.32
2019-03-19T12:13:46.665Z,70.79
2019-03-19T12:14:56.611Z,70.79
2019-03-19T12:16:06.615Z,70.04
2019-03-19T12:17:16.573Z,69.37
2019-03-19T12:18:26.022Z,69.37
2019-03-19T12:19:35.731Z,70.13
2019-03-19T12:20:45.689Z,69.75
2019-03-19T12:21:55.388Z,69.37
2019-03-19T12:23:05.159Z,68.9
2019-03-19T12:24:15.117Z,70.04
2019-03-19T12:25:25.061Z,69.5
2019-03-19T12:26:36.620Z,69.12
2019-03-19T12:27:46.320Z,69.12
2019-03-19T12:28:56.274Z,70.49
2019-03-19T12:30:05.989Z,68.96
2019-03-19T12:31:29.107Z,62.43
2019-03-19T12:32:38.803Z,60.53
2019-03-19T12:33:48.784Z,61.35
2019-03-19T12:34:58.764Z,61.35
2019-03-19T12:36:09.511Z,62.15
2019-03-19T12:37:19.482Z,60.82
2019-03-19T12:38:29.432Z,59.96
2019-03-19T12:39:38.633Z,59.99
2019-03-19T12:40:48.348Z,60.24
2019-03-19T12:41:58.332Z,60.18
2019-03-19T12:43:08.368Z,59.7
2019-03-19T12:44:18.172Z,58.94
2019-03-19T12:45:27.911Z,58.56
2019-03-19T12:46:37.926Z,58.56
2019-03-19T12:47:47.895Z,59.06
2019-03-19T12:48:57.613Z,59.16
2019-03-19T12:50:07.159Z,59.64
2019-03-19T12:51:16.866Z,59.51
2019-03-19T12:52:26.560Z,60.27
2019-03-19T12:53:36.537Z,59.64
2019-03-19T12:54:46.252Z,58.69
2019-03-19T12:55:56.235Z,61.16
2019-03-19T12:57:06.208Z,60.02
2019-03-19T12:58:15.931Z,59.7
2019-03-19T12:59:25.656Z,60.37
2019-03-19T13:00:57.935Z,60.46
2019-03-19T13:02:08.120Z,61.19
2019-03-19T13:03:18.109Z,62.34
2019-03-19T13:04:27.856Z,62.69
2019-03-19T13:05:37.847Z,63.35
2019-03-19T13:06:47.335Z,63.64
2019-03-19T13:07:57.316Z,63.83
2019-03-19T13:09:07.045Z,64.11
2019-03-19T13:10:17.005Z,63.64
2019-03-19T13:11:26.731Z,64.59
2019-03-19T13:12:36.447Z,64.02
2019-03-19T13:13:46.429Z,63.83
2019-03-19T13:14:56.176Z,63.17
2019-03-19T13:16:06.170Z,64.46
2019-03-19T13:17:15.932Z,64.75
2019-03-19T13:18:25.390Z,64.56
2019-03-19T13:19:34.841Z,64.65
2019-03-19T13:20:44.805Z,64.18
2019-03-19T13:21:56.511Z,64.27
2019-03-19T13:23:06.489Z,63.6
2019-03-19T13:24:17.363Z,63.32
2019-03-19T13:25:27.505Z,63.6
2019-03-19T13:26:37.467Z,63.13
2019-03-19T13:27:47.168Z,62.65
2019-03-19T13:28:56.883Z,63.7
2019-03-19T13:30:06.338Z,64.27
2019-03-19T13:31:16.046Z,62.85
2019-03-19T13:32:25.510Z,63.04
2019-03-19T13:33:36.035Z,63.7
2019-03-19T13:34:45.524Z,64.37
2019-03-19T13:35:55.302Z,63.51
2019-03-19T13:37:05.248Z,63.04
2019-03-19T13:38:15.253Z,63.04
2019-03-19T13:39:25.231Z,62.46
2019-03-19T13:40:34.976Z,62.37
2019-03-19T13:41:44.439Z,62.08
2019-03-19T13:42:54.153Z,62.08
2019-03-19T13:44:03.850Z,61.71
2019-03-19T13:45:14.273Z,61.13
2019-03-19T13:46:24.239Z,60.66
2019-03-19T13:47:33.923Z,59.14
2019-03-19T13:48:43.883Z,59.52
2019-03-19T13:49:53.587Z,59.23
2019-03-19T13:51:03.321Z,59.71
2019-03-19T13:52:13.288Z,60.25
2019-03-19T13:53:23.259Z,60.16
2019-03-19T13:54:33.284Z,60.94
2019-03-19T13:55:42.488Z,60.75
2019-03-19T13:56:52.199Z,60.47
2019-03-19T13:58:01.663Z,60.35
2019-03-19T13:59:11.365Z,60.28
2019-03-19T14:00:21.148Z,60.75
2019-03-19T14:01:31.117Z,60.85
2019-03-19T14:02:40.813Z,61.96
2019-03-19T14:03:50.802Z,61.04
2019-03-19T14:05:00.782Z,60.75
2019-03-19T14:06:10.765Z,61.23
2019-03-19T14:07:20.456Z,61.71
2019-03-19T14:08:30.163Z,61.13
2019-03-19T14:09:40.103Z,62.08
2019-03-19T14:10:49.797Z,62.94
2019-03-19T14:12:01.707Z,63.23
2019-03-19T14:13:11.681Z,63.51
2019-03-19T14:14:21.163Z,64.18
2019-03-19T14:15:31.149Z,63.32
2019-03-19T14:16:41.099Z,63.6
2019-03-19T14:17:51.049Z,63.7
2019-03-19T14:19:01.065Z,64.18
2019-03-19T14:20:11.046Z,64.84
2019-03-19T14:21:21.051Z,63.7
2019-03-19T14:22:30.767Z,63.6
2019-03-19T14:23:40.471Z,64.94
2019-03-19T14:24:50.445Z,63.51
2019-03-19T14:26:00.404Z,62.08
2019-03-19T14:27:10.371Z,61.04
2019-03-19T14:28:22.103Z,60.18
2019-03-19T14:29:31.831Z,59.33
2019-03-19T14:30:41.800Z,60.38
2019-03-19T14:31:51.777Z,60.57
2019-03-19T14:33:01.752Z,60.57
2019-03-19T14:34:11.505Z,60.66
2019-03-19T14:35:21.477Z,61.32
2019-03-19T14:36:42.049Z,61.61
2019-03-19T14:37:52.021Z,62.75
2019-03-19T14:39:01.957Z,62.27
2019-03-19T14:40:12.558Z,62.46
2019-03-19T14:41:22.518Z,63.04
2019-03-19T14:42:32.481Z,63.04
2019-03-19T14:43:42.185Z,61.35
2019-03-19T14:44:52.201Z,60.88
2019-03-19T14:46:02.135Z,60.97
2019-03-19T14:47:11.355Z,61.83
2019-03-19T14:48:21.067Z,62.4
2019-03-19T14:49:31.043Z,61.07
2019-03-19T14:50:52.825Z,61.26
2019-03-19T14:52:02.797Z,61.93
2019-03-19T14:53:12.774Z,60.31
2019-03-19T14:54:22.235Z,60.41
2019-03-19T14:55:32.186Z,61.55
2019-03-19T14:56:42.146Z,61.35
2019-03-19T14:57:53.454Z,61.26
2019-03-19T14:59:03.165Z,62.97
2019-03-19T15:00:12.855Z,62.4
2019-03-19T15:01:22.551Z,62.97
2019-03-19T15:02:32.257Z,62.97
2019-03-19T15:03:42.226Z,63.26